createdAt,value
2022-08-23T00:05:13.498Z,20.6
2022-08-23T00:15:13.841Z,20.6
2022-08-23T00:25:13.858Z,20.9
2022-08-23T00:35:15.906Z,20.9
2022-08-23T00:45:14.264Z,20.7
2022-08-23T01:05:15.748Z,20.2
2022-08-23T01:15:16.248Z,20
2022-08-23T01:25:16.570Z,19.9
2022-08-23T01:35:17.462Z,19.7
2022-08-23T01:45:18.002Z,19.5
2022-08-23T01:55:18.898Z,19.3
2022-08-23T02:05:19.713Z,19.1
2022-08-23T02:15:20.175Z,18.7
2022-08-23T02:25:20.388Z,18.4
2022-08-23T02:35:20.724Z,18.2
2022-08-23T02:45:21.651Z,18
2022-08-23T02:55:21.934Z,17.9
2022-08-23T03:05:22.053Z,17.7
2022-08-23T03:15:22.615Z,17.6
2022-08-23T03:25:22.981Z,17.5
2022-08-23T03:35:23.186Z,17.4
2022-08-23T03:45:23.777Z,17.4
2022-08-23T03:55:24.264Z,17.6
2022-08-23T04:05:25.338Z,17.5
2022-08-23T04:15:25.983Z,17.2
2022-08-23T04:25:33.138Z,17
2022-08-23T04:35:27.386Z,17.2
2022-08-23T04:45:27.797Z,17.3
2022-08-23T04:55:28.140Z,17.2
2022-08-23T05:05:28.445Z,17.1
2022-08-23T05:15:28.566Z,17.4
2022-08-23T05:25:28.960Z,17.7
2022-08-23T05:35:29.629Z,18.3
2022-08-23T05:45:30.571Z,19.1
2022-08-23T05:55:34.887Z,20
2022-08-23T06:05:31.480Z,20.4
2022-08-23T06:15:32.365Z,21.1
2022-08-23T06:25:32.849Z,21
2022-08-23T06:35:39.524Z,21.2
2022-08-23T06:45:35.151Z,21.5
2022-08-23T06:55:34.544Z,21.8
2022-08-23T07:05:35.485Z,22.3
2022-08-23T07:15:35.680Z,22.7
2022-08-23T07:25:35.920Z,22.7
2022-08-23T07:35:40.165Z,23.3
2022-08-23T07:45:37.444Z,23.3
2022-08-23T07:55:37.641Z,24.1
2022-08-23T08:05:38.133Z,24.9
2022-08-23T08:15:39.065Z,24.5
2022-08-23T08:25:39.959Z,25.2
2022-08-23T08:35:40.272Z,25.3
2022-08-23T08:45:40.982Z,25.7
2022-08-23T08:55:41.867Z,25.8
2022-08-23T09:05:42.726Z,26.1
2022-08-23T09:15:43.703Z,26.6
2022-08-23T09:35:44.458Z,28.1
2022-08-23T09:45:45.266Z,28.3
2022-08-23T09:55:46.033Z,27.1
2022-08-23T10:05:46.209Z,28.3
2022-08-23T10:15:46.461Z,28.7
2022-08-23T10:25:47.311Z,27.9
2022-08-23T10:35:48.219Z,28
2022-08-23T10:45:49.217Z,28
2022-08-23T11:05:51.061Z,29.3
2022-08-23T11:15:51.705Z,28.7
2022-08-23T11:25:52.438Z,29.7
2022-08-23T11:35:53.359Z,30.5
2022-08-23T11:45:53.678Z,29.6
2022-08-23T11:55:54.466Z,29.5
2022-08-23T12:05:55.123Z,30.3
2022-08-23T12:15:56.116Z,29.6
2022-08-23T12:25:56.704Z,29.4
2022-08-23T12:45:57.928Z,30.1
2022-08-23T12:55:58.464Z,30.8
2022-08-23T13:06:01.787Z,30.3
2022-08-23T13:15:59.957Z,31.2
2022-08-23T13:26:00.947Z,30.9
2022-08-23T13:36:01.444Z,31.1
2022-08-23T13:46:01.881Z,30.9
2022-08-23T13:56:02.817Z,30.8
2022-08-23T14:06:03.842Z,31
2022-08-23T14:16:33.097Z,31.8
2022-08-23T14:36:04.019Z,31.1
2022-08-23T14:56:20.201Z,31.1
2022-08-23T15:06:05.010Z,30.9
2022-08-23T15:16:05.124Z,31
2022-08-23T15:26:05.848Z,30.8
2022-08-23T15:36:06.843Z,30.8
2022-08-23T15:46:07.201Z,31.2
2022-08-23T15:56:07.739Z,30.9
2022-08-23T15:56:47.392Z,30.9
2022-08-23T16:16:14.545Z,31
2022-08-23T16:26:15.141Z,31.1
2022-08-23T16:36:15.203Z,30.3
2022-08-23T16:46:15.923Z,30.2
2022-08-23T16:56:15.870Z,29.6
2022-08-23T17:06:16.410Z,29.2
2022-08-23T17:16:16.721Z,29.2
2022-08-23T17:26:17.476Z,28.7
2022-08-23T17:36:17.539Z,28.5
2022-08-23T17:46:17.921Z,28.4
2022-08-23T17:56:18.154Z,28.1
2022-08-23T18:06:18.802Z,27.7
2022-08-23T18:26:20.255Z,27.2
2022-08-23T18:36:20.745Z,26.9
2022-08-23T18:46:21.420Z,26.4
2022-08-23T19:06:22.197Z,25.7
2022-08-23T19:16:22.806Z,25.4
2022-08-23T19:26:23.694Z,25.2
2022-08-23T19:36:45.072Z,25.3
2022-08-23T19:46:24.771Z,25.3
2022-08-23T19:56:25.583Z,25.4
2022-08-23T20:06:26.487Z,25.4
2022-08-23T20:16:26.951Z,25.4
2022-08-23T20:26:27.423Z,25.2
2022-08-23T20:36:28.186Z,25
2022-08-23T20:46:28.550Z,24.8
2022-08-23T20:56:28.672Z,24.8
2022-08-23T21:06:29.085Z,24.6
2022-08-23T21:16:29.466Z,24.7
2022-08-23T21:26:30.064Z,24.7
2022-08-23T21:36:31.020Z,24.6
2022-08-23T21:46:31.648Z,24.4
2022-08-23T21:56:31.763Z,24.3
2022-08-23T22:06:32.634Z,24.3
2022-08-23T22:26:34.403Z,23.8
2022-08-23T22:36:34.515Z,23.8
2022-08-23T22:46:34.798Z,23.7
2022-08-23T22:56:35.045Z,23.8
2022-08-23T23:06:35.321Z,23.7
2022-08-23T23:16:35.565Z,23.6
2022-08-23T23:26:35.844Z,23.5
2022-08-23T23:36:36.670Z,23.3
2022-08-23T23:46:37.075Z,23.3
2022-08-23T23:56:38.109Z,23.2
